Time;durP1;ratioP1;P1;durP2;ratioP2;P2;SDS_P1;SDS_P2;PMS_P1;PMS_P2;Temp;Humidity;BMP_temperature;BMP_pressure;BME280_temperature;BME280_humidity;BME280_pressure;Samples;Min_cycle;Max_cycle;Signal;HPM_P1;HPM_P2
2022/01/10 00:02:07;;;;;;;38.00;14.85;;;;;;;7.51;54.21;100104.56;5075722;28;20123;-73
2022/01/10 00:04:34;;;;;;;38.63;13.98;;;;;;;7.32;54.63;100107.41;5075246;28;20098;-73
2022/01/10 00:07:01;;;;;;;36.08;14.60;;;;;;;7.41;54.46;100117.16;5076482;28;20636;-73
2022/01/10 00:09:27;;;;;;;44.05;15.30;;;;;;;7.50;54.17;100118.03;5076796;28;20078;-73
2022/01/10 00:11:53;;;;;;;41.92;15.85;;;;;;;7.24;55.04;100118.00;5075345;28;20064;-73
2022/01/10 00:14:20;;;;;;;37.90;14.57;;;;;;;7.24;55.38;100126.84;5075994;28;20127;-73
2022/01/10 00:16:46;;;;;;;33.88;13.38;;;;;;;7.21;54.95;100131.66;5075691;28;20136;-74
2022/01/10 00:19:13;;;;;;;35.60;13.95;;;;;;;7.33;54.86;100133.94;5074381;28;20053;-73
2022/01/10 00:21:39;;;;;;;37.92;14.88;;;;;;;7.06;55.29;100144.69;5074223;28;20080;-73
2022/01/10 00:24:06;;;;;;;41.17;14.63;;;;;;;7.47;54.52;100148.56;5075461;28;20457;-73
2022/01/10 00:26:32;;;;;;;35.85;14.98;;;;;;;7.37;54.46;100150.50;5074789;28;20485;-73
2022/01/10 00:28:59;;;;;;;43.50;16.13;;;;;;;7.54;54.33;100159.47;5073848;28;20078;-73
2022/01/10 00:31:26;;;;;;;41.58;13.98;;;;;;;7.55;54.36;100159.31;5074622;28;20075;-73
2022/01/10 00:33:52;;;;;;;32.10;13.57;;;;;;;7.46;54.24;100160.22;5075563;28;20044;-73
2022/01/10 00:36:18;;;;;;;39.03;14.73;;;;;;;7.48;54.05;100168.94;5074492;28;20049;-73
2022/01/10 00:38:45;;;;;;;33.10;13.90;;;;;;;7.45;54.08;100174.56;5075019;28;20123;-73
2022/01/10 00:41:12;;;;;;;29.02;13.02;;;;;;;7.31;54.69;100177.78;5076022;28;20127;-73
2022/01/10 00:43:45;;;;;;;39.70;13.52;;;;;;;7.36;54.63;100175.47;5075302;28;20068;-73
2022/01/10 00:46:13;;;;;;;42.50;14.23;;;;;;;7.51;54.13;100179.28;5073756;28;20045;-73
2022/01/10 00:48:39;;;;;;;35.95;12.90;;;;;;;7.45;54.12;100179.91;5073344;28;20041;-73
2022/01/10 00:51:06;;;;;;;35.83;14.02;;;;;;;7.54;53.82;100187.00;5075046;28;20051;-73
2022/01/10 00:53:32;;;;;;;39.33;13.63;;;;;;;7.50;53.89;100192.78;5074791;28;20072;-73
2022/01/10 00:55:59;;;;;;;30.65;11.77;;;;;;;7.47;54.19;100201.13;5075739;28;20458;-73
2022/01/10 00:58:25;;;;;;;39.08;12.98;;;;;;;7.27;54.38;100203.91;5074499;28;20132;-73
2022/01/10 01:00:52;;;;;;;32.72;13.43;;;;;;;7.44;54.07;100204.94;5075216;28;20044;-73
2022/01/10 01:03:18;;;;;;;37.78;13.57;;;;;;;7.48;54.10;100216.13;5075366;28;20481;-73
2022/01/10 01:05:45;;;;;;;33.50;12.50;;;;;;;7.44;53.94;100215.59;5074543;28;20072;-73
2022/01/10 01:08:13;;;;;;;28.75;11.52;;;;;;;7.43;53.92;100224.59;5075105;28;20048;-73
2022/01/10 01:24:01;;;;;;;31.10;12.82;;;;;;;7.48;53.52;100242.81;5074433;28;20045;-73
2022/01/10 01:26:30;;;;;;;33.90;12.85;;;;;;;7.43;53.98;100248.63;5066120;28;20075;-73
2022/01/10 01:28:56;;;;;;;39.25;12.95;;;;;;;7.54;53.63;100259.06;5073864;28;20128;-73
2022/01/10 01:31:23;;;;;;;34.40;12.82;;;;;;;7.63;53.42;100259.97;5075085;28;20072;-73
2022/01/10 01:33:49;;;;;;;27.75;11.77;;;;;;;7.55;53.29;100271.41;5074087;28;20415;-73
2022/01/10 01:36:21;;;;;;;38.33;13.57;;;;;;;7.56;53.37;100267.75;5075880;28;20045;-73
2022/01/10 01:38:48;;;;;;;30.10;12.65;;;;;;;7.56;53.21;100283.78;5073862;28;20046;-74
2022/01/10 01:41:35;;;;;;;37.97;13.25;;;;;;;7.29;54.12;100290.00;5074806;28;20044;-73
2022/01/10 01:44:03;;;;;;;32.22;12.95;;;;;;;7.57;53.71;100290.81;5072860;28;20126;-73
2022/01/10 01:46:34;;;;;;;35.85;13.35;;;;;;;7.53;53.30;100293.91;5073535;28;20109;-73
2022/01/10 01:49:02;;;;;;;39.55;13.18;;;;;;;7.41;53.98;100302.13;5074332;28;20106;-73
2022/01/10 01:51:29;;;;;;;30.42;12.38;;;;;;;7.53;53.47;100305.41;5074610;28;20098;-73
2022/01/10 01:53:56;;;;;;;40.53;13.32;;;;;;;7.53;53.55;100310.75;5073552;28;20136;-73
2022/01/10 01:56:22;;;;;;;39.75;13.82;;;;;;;7.48;53.48;100305.06;5074361;28;20052;-73
2022/01/10 01:58:52;;;;;;;43.28;13.07;;;;;;;7.43;53.50;100320.69;5073290;28;20072;-73
2022/01/10 02:01:19;;;;;;;36.30;12.32;;;;;;;7.43;53.78;100321.53;5072674;28;20469;-73
2022/01/10 02:03:47;;;;;;;39.90;13.18;;;;;;;7.52;53.66;100330.44;5073277;28;20131;-73
2022/01/10 02:10:05;;;;;;;37.15;12.27;;;;;;;7.52;53.76;100348.28;5074526;28;20535;-73
2022/01/10 02:12:31;;;;;;;34.67;11.90;;;;;;;7.45;53.90;100344.53;5044789;28;20132;-73
2022/01/10 02:14:58;;;;;;;35.80;11.90;;;;;;;7.42;53.76;100348.34;5073141;28;20040;-73
2022/01/10 02:17:33;;;;;;;41.38;12.23;;;;;;;7.21;54.10;100363.75;5073612;28;20075;-73
2022/01/10 02:20:02;;;;;;;41.03;11.68;;;;;;;7.42;53.90;100361.69;5073986;28;20064;-73
2022/01/10 02:22:28;;;;;;;30.55;11.38;;;;;;;7.61;53.50;100372.28;5074016;28;20060;-73
2022/01/10 02:24:55;;;;;;;37.13;11.88;;;;;;;7.56;53.38;100368.34;5074156;28;20040;-73
2022/01/10 02:27:22;;;;;;;38.10;11.80;;;;;;;7.62;53.19;100373.94;5074341;28;20147;-73
2022/01/10 02:29:49;;;;;;;27.45;11.30;;;;;;;7.61;53.10;100372.28;5081002;28;20530;-73
2022/01/10 02:32:16;;;;;;;28.90;11.55;;;;;;;7.51;53.47;100378.66;5082780;28;20051;-73
2022/01/10 02:34:43;;;;;;;34.83;12.35;;;;;;;7.59;53.37;100384.09;5074844;28;20536;-73
2022/01/10 02:37:10;;;;;;;31.60;11.88;;;;;;;7.63;53.28;100378.28;5074195;28;20094;-73
2022/01/10 02:39:37;;;;;;;33.00;11.50;;;;;;;7.66;53.24;100385.16;5073173;28;20056;-73
2022/01/10 02:42:03;;;;;;;34.35;11.68;;;;;;;7.59;53.18;100397.44;5074659;28;20047;-73
2022/01/10 02:44:30;;;;;;;39.50;12.13;;;;;;;7.63;53.23;100404.97;5073519;28;20063;-73
2022/01/10 02:46:56;;;;;;;32.22;11.13;;;;;;;7.57;53.26;100412.75;5073281;28;20441;-73
2022/01/10 02:49:26;;;;;;;39.50;12.07;;;;;;;7.64;53.32;100414.69;5073525;28;20134;-73
2022/01/10 02:51:54;;;;;;;38.58;12.13;;;;;;;7.60;53.13;100415.97;5055497;28;20075;-73
2022/01/10 02:54:25;;;;;;;31.17;11.55;;;;;;;7.59;53.37;100419.63;5073865;28;20084;-73
2022/01/10 02:56:55;;;;;;;20.07;9.33;;;;;;;7.60;53.20;100428.47;5073071;28;20072;-73
2022/01/10 02:59:24;;;;;;;34.45;12.00;;;;;;;7.64;52.89;100429.88;5072252;28;20055;-73
2022/01/10 03:01:51;;;;;;;27.50;12.10;;;;;;;7.59;53.32;100432.97;5072295;28;20060;-74
2022/01/10 03:04:19;;;;;;;39.60;11.38;;;;;;;7.61;53.23;100439.00;5065898;28;20048;-74
2022/01/10 03:06:46;;;;;;;35.50;12.55;;;;;;;7.59;53.21;100442.81;5073215;28;20507;-73
2022/01/10 03:09:12;;;;;;;33.58;11.93;;;;;;;7.62;53.27;100453.19;5074038;28;20124;-73
2022/01/10 03:11:40;;;;;;;33.55;11.25;;;;;;;7.63;53.37;100450.38;5070628;28;20425;-73
2022/01/10 03:14:07;;;;;;;30.45;11.48;;;;;;;7.62;53.15;100456.69;5074085;28;20045;-73
2022/01/10 03:16:34;;;;;;;30.73;11.70;;;;;;;7.73;53.13;100466.34;5063764;28;20060;-74
2022/01/10 03:19:00;;;;;;;37.72;12.70;;;;;;;7.72;52.81;100469.19;5072977;28;20068;-73
2022/01/10 03:21:26;;;;;;;35.30;10.82;;;;;;;7.68;53.10;100473.13;5072982;28;20144;-73
2022/01/10 03:23:54;;;;;;;39.08;11.60;;;;;;;7.62;53.15;100482.56;5071844;28;20127;-73
2022/01/10 03:26:21;;;;;;;35.97;11.30;;;;;;;7.59;53.27;100482.84;5072899;28;20044;-73
2022/01/10 03:28:47;;;;;;;37.63;11.27;;;;;;;7.60;53.36;100482.72;5072783;28;20090;-73
2022/01/10 03:31:14;;;;;;;33.35;11.90;;;;;;;7.60;53.42;100488.06;5072903;28;20136;-73
2022/01/10 03:33:40;;;;;;;43.30;11.52;;;;;;;7.13;54.20;100493.38;5072411;28;20048;-73
2022/01/10 03:36:07;;;;;;;30.00;10.80;;;;;;;7.04;54.80;100502.25;5072969;28;20123;-73
2022/01/10 03:38:33;;;;;;;35.08;11.15;;;;;;;7.39;54.13;100495.41;5072394;28;20040;-73
2022/01/10 03:40:59;;;;;;;29.90;11.68;;;;;;;7.55;53.39;100506.34;5072544;28;20051;-73
2022/01/10 03:43:26;;;;;;;32.30;11.88;;;;;;;7.34;54.20;100503.03;5071095;28;20117;-73
2022/01/10 03:45:53;;;;;;;46.10;12.32;;;;;;;7.24;54.35;100515.56;5072157;28;20068;-73
2022/01/10 03:48:19;;;;;;;38.88;11.82;;;;;;;7.47;53.70;100519.56;5073185;28;20127;-73
2022/01/10 03:50:46;;;;;;;34.35;11.55;;;;;;;7.58;53.34;100521.22;5073134;28;20512;-73
2022/01/10 03:53:12;;;;;;;38.65;11.25;;;;;;;7.56;53.59;100524.03;5071920;28;20556;-73
2022/01/10 03:55:39;;;;;;;41.20;13.55;;;;;;;7.42;53.93;100529.81;5073664;28;20044;-73
2022/01/10 03:58:05;;;;;;;36.72;12.50;;;;;;;7.60;53.43;100530.78;5073071;28;20073;-73
2022/01/10 04:00:32;;;;;;;26.50;11.30;;;;;;;7.58;53.47;100538.09;5073400;28;20127;-73
2022/01/10 04:03:03;;;;;;;32.05;11.48;;;;;;;7.64;53.18;100532.16;5072342;28;20515;-73
2022/01/10 04:05:30;;;;;;;34.70;12.27;;;;;;;7.43;53.78;100534.22;5073058;28;20132;-73
2022/01/10 04:07:57;;;;;;;33.35;12.07;;;;;;;7.39;53.71;100541.63;5072462;28;20056;-74
2022/01/10 04:10:23;;;;;;;42.30;12.60;;;;;;;7.53;53.57;100551.00;5072616;28;20542;-73
2022/01/10 04:12:50;;;;;;;46.45;13.10;;;;;;;7.68;53.13;100546.06;5073754;28;20433;-73
2022/01/10 04:15:16;;;;;;;36.03;12.07;;;;;;;7.63;53.20;100557.16;5076213;28;20048;-74
2022/01/10 04:17:43;;;;;;;37.33;13.35;;;;;;;7.28;54.31;100557.81;5076534;28;20420;-74
2022/01/10 04:20:10;;;;;;;37.20;11.55;;;;;;;7.47;53.71;100559.63;5076124;28;20161;-73
2022/01/10 04:22:36;;;;;;;34.30;12.25;;;;;;;7.38;54.04;100563.97;5076996;28;20473;-73
2022/01/10 04:25:04;;;;;;;33.72;11.57;;;;;;;7.48;53.79;100568.47;5076580;28;20083;-73
2022/01/10 04:27:32;;;;;;;29.35;11.65;;;;;;;7.65;53.19;100575.72;5076865;28;20453;-73
2022/01/10 04:29:59;;;;;;;28.02;12.45;;;;;;;7.26;54.35;100588.31;5071987;28;20127;-73
2022/01/10 04:32:28;;;;;;;33.67;12.23;;;;;;;7.12;54.63;100590.41;5076466;28;20076;-73
2022/01/10 04:34:55;;;;;;;39.10;13.27;;;;;;;7.20;54.73;100600.38;5075914;28;20112;-74
2022/01/10 04:37:22;;;;;;;29.95;12.45;;;;;;;7.17;54.55;100598.81;5076442;28;20131;-73
2022/01/10 04:39:48;;;;;;;35.78;13.23;;;;;;;7.60;53.40;100600.19;5076256;28;20047;-73
2022/01/10 04:42:14;;;;;;;33.35;12.98;;;;;;;7.63;53.09;100615.91;5076182;28;20048;-73
2022/01/10 04:44:41;;;;;;;30.38;12.40;;;;;;;7.36;53.72;100613.13;5076164;28;20054;-74
2022/01/10 04:47:09;;;;;;;44.78;14.45;;;;;;;7.68;53.23;100620.84;5076295;28;20044;-74
2022/01/10 04:50:04;;;;;;;36.05;14.40;;;;;;;7.59;53.30;100627.03;5075430;28;20200;-73
2022/01/10 04:52:25;;;;;;;37.60;13.05;;;;;;;7.48;53.73;100636.03;5074774;28;20056;-74
2022/01/10 04:54:52;;;;;;;32.13;12.98;;;;;;;7.43;53.90;100643.63;5076512;28;20143;-73
2022/01/10 04:57:18;;;;;;;32.95;12.65;;;;;;;7.66;53.09;100636.97;5075201;28;20075;-73
2022/01/10 04:59:45;;;;;;;34.75;13.32;;;;;;;7.25;54.43;100645.31;5074933;28;20047;-73
2022/01/10 05:02:12;;;;;;;33.67;13.23;;;;;;;7.61;53.36;100649.09;5075002;28;20051;-73
2022/01/10 05:04:38;;;;;;;39.25;14.18;;;;;;;7.65;53.08;100656.66;5075159;28;20049;-73
2022/01/10 05:07:05;;;;;;;36.90;12.60;;;;;;;7.35;53.98;100659.50;5074720;28;20044;-74
2022/01/10 05:09:31;;;;;;;39.63;13.18;;;;;;;7.34;53.81;100658.66;5075514;28;20477;-73
2022/01/10 05:11:58;;;;;;;46.03;14.75;;;;;;;7.38;53.52;100667.22;5073966;28;20548;-74
2022/01/10 05:14:25;;;;;;;40.83;14.63;;;;;;;7.15;54.46;100672.84;5071086;28;20048;-73
2022/01/10 05:16:52;;;;;;;40.78;14.40;;;;;;;7.76;52.91;100674.34;5075852;28;20076;-73
2022/01/10 05:19:18;;;;;;;36.55;13.95;;;;;;;7.63;53.11;100684.47;5075504;28;20478;-73
2022/01/10 05:21:45;;;;;;;29.85;13.00;;;;;;;7.56;53.26;100680.69;5073264;28;20044;-74
2022/01/10 05:24:12;;;;;;;36.13;13.73;;;;;;;7.61;53.33;100689.97;5075144;28;20056;-73
2022/01/10 05:26:38;;;;;;;39.53;13.70;;;;;;;7.41;53.58;100691.81;5075798;28;20036;-74
2022/01/10 05:29:05;;;;;;;37.83;13.15;;;;;;;7.61;53.40;100692.66;5074160;28;20128;-73
2022/01/10 05:31:34;;;;;;;36.40;13.95;;;;;;;7.70;53.19;100692.78;5075451;28;20054;-73
2022/01/10 05:34:01;;;;;;;40.90;13.52;;;;;;;7.30;54.05;100704.44;5075432;28;20162;-74
2022/01/10 05:36:28;;;;;;;36.83;13.75;;;;;;;7.52;53.88;100709.50;5074817;28;20070;-73
2022/01/10 05:38:56;;;;;;;41.20;13.80;;;;;;;7.64;53.39;100721.75;5074337;28;20123;-74
2022/01/10 05:41:22;;;;;;;41.67;12.98;;;;;;;7.10;54.65;100725.75;5073890;28;20131;-74
2022/01/10 05:43:49;;;;;;;36.58;14.13;;;;;;;7.22;54.88;100728.28;5074830;28;20041;-74
2022/01/10 05:46:20;;;;;;;36.40;13.55;;;;;;;7.52;53.68;100740.69;5074917;28;20071;-74
2022/01/10 05:48:49;;;;;;;38.43;13.40;;;;;;;7.51;53.55;100742.53;5073208;28;20123;-73
2022/01/10 05:51:16;;;;;;;40.30;13.05;;;;;;;7.55;53.35;100753.78;5074068;28;20472;-73
2022/01/10 05:53:42;;;;;;;33.17;12.50;;;;;;;7.26;53.43;100762.59;5073224;28;20067;-73
2022/01/10 05:56:09;;;;;;;31.23;12.18;;;;;;;7.14;54.75;100761.84;5074853;28;20045;-74
2022/01/10 05:58:35;;;;;;;38.70;12.38;;;;;;;7.51;53.76;100769.22;5074722;28;20067;-73
2022/01/10 06:01:02;;;;;;;37.88;12.93;;;;;;;7.32;54.21;100771.84;5070559;28;20120;-73
2022/01/10 06:03:29;;;;;;;34.67;12.82;;;;;;;7.35;54.29;100775.09;5075361;28;20052;-73
2022/01/10 06:05:55;;;;;;;43.03;12.48;;;;;;;7.48;53.60;100780.19;5072969;28;20045;-74
2022/01/10 06:08:23;;;;;;;37.70;12.25;;;;;;;7.55;53.46;100781.31;5075490;28;20103;-73
2022/01/10 06:10:49;;;;;;;35.33;13.45;;;;;;;7.41;53.60;100784.38;5074340;28;20044;-74
2022/01/10 06:13:15;;;;;;;29.48;12.18;;;;;;;7.25;54.29;100795.56;5074853;28;20450;-73
2022/01/10 06:15:42;;;;;;;39.67;13.07;;;;;;;7.50;53.94;100801.38;5075424;28;20049;-73
2022/01/10 06:18:08;;;;;;;42.25;12.63;;;;;;;7.39;54.03;100805.84;5074889;28;20091;-74
2022/01/10 06:20:35;;;;;;;46.08;12.82;;;;;;;7.62;53.43;100806.47;5056868;28;20477;-73
2022/01/10 06:23:02;;;;;;;30.60;12.10;;;;;;;7.65;52.89;100805.34;5074801;28;20079;-73
2022/01/10 06:25:29;;;;;;;35.95;12.35;;;;;;;7.79;52.88;100817.44;5075110;28;20044;-73
2022/01/10 06:27:57;;;;;;;33.88;11.52;;;;;;;7.82;52.72;100815.34;5075376;28;20068;-73
2022/01/10 06:30:24;;;;;;;34.78;12.57;;;;;;;7.74;53.00;100819.69;5076912;28;20117;-73
2022/01/10 06:32:51;;;;;;;45.20;12.55;;;;;;;7.79;52.81;100828.97;5081896;28;20086;-73
2022/01/10 06:35:17;;;;;;;32.08;12.77;;;;;;;7.74;52.87;100828.56;5079440;28;20131;-74
2022/01/10 06:37:44;;;;;;;34.90;13.20;;;;;;;7.56;53.38;100832.88;5073878;28;20123;-74
2022/01/10 06:40:11;;;;;;;37.40;13.40;;;;;;;7.74;53.12;100835.69;5055423;28;20078;-74
2022/01/10 06:42:37;;;;;;;33.65;12.52;;;;;;;7.12;54.38;100845.69;5073577;28;20151;-74
2022/01/10 06:45:04;;;;;;;36.67;12.18;;;;;;;7.58;53.47;100847.78;5074647;28;20441;-74
2022/01/10 06:47:31;;;;;;;30.00;11.27;;;;;;;7.73;52.63;100858.91;5074723;28;20135;-73
2022/01/10 06:49:57;;;;;;;45.15;12.00;;;;;;;7.89;52.27;100861.06;5073860;28;20125;-73
2022/01/10 06:52:24;;;;;;;40.20;12.27;;;;;;;7.73;52.69;100861.56;5074191;28;20071;-73
2022/01/10 06:54:51;;;;;;;29.02;11.80;;;;;;;7.19;54.01;100869.03;5074642;28;20051;-73
2022/01/10 06:57:17;;;;;;;36.10;12.73;;;;;;;6.69;55.83;100881.41;5072771;28;20098;-74
2022/01/10 06:59:44;;;;;;;31.42;11.07;;;;;;;7.53;53.72;100883.88;5057630;28;20171;-74
2022/01/10 07:02:11;;;;;;;34.17;12.60;;;;;;;7.54;53.54;100883.75;5075598;28;20469;-73
2022/01/10 07:04:37;;;;;;;31.55;11.60;;;;;;;7.32;54.26;100894.63;5075138;28;20048;-74
2022/01/10 07:07:05;;;;;;;47.47;13.43;;;;;;;7.16;54.68;100895.97;5075819;28;20102;-74
2022/01/10 07:09:32;;;;;;;35.55;12.52;;;;;;;7.77;53.09;100904.88;5074100;28;20045;-74
2022/01/10 07:11:59;;;;;;;27.05;12.07;;;;;;;7.90;52.67;100918.84;5074700;28;20072;-73
2022/01/10 07:14:25;;;;;;;32.22;11.65;;;;;;;7.83;52.44;100925.69;5070751;28;20442;-73
2022/01/10 07:16:51;;;;;;;46.67;12.80;;;;;;;8.02;51.96;100931.13;5074934;28;20047;-73
2022/01/10 07:19:18;;;;;;;29.83;12.98;;;;;;;7.95;52.06;100940.66;5074743;28;20051;-74
2022/01/10 07:21:45;;;;;;;47.78;11.85;;;;;;;7.49;53.43;100944.69;5073384;28;20055;-74
2022/01/10 07:24:12;;;;;;;33.70;11.82;;;;;;;7.30;54.37;100945.47;5073668;28;20063;-73
2022/01/10 07:26:38;;;;;;;36.58;12.18;;;;;;;7.92;52.45;100951.63;5074449;28;20172;-74
2022/01/10 07:29:07;;;;;;;33.55;12.63;;;;;;;8.04;52.00;100963.03;5075842;28;20128;-74
2022/01/10 07:31:35;;;;;;;40.55;12.18;;;;;;;8.19;51.57;100966.13;5075742;28;20080;-73
2022/01/10 07:34:03;;;;;;;34.95;13.77;;;;;;;8.17;51.72;100981.47;5075672;28;20079;-73
2022/01/10 07:36:29;;;;;;;53.88;15.05;;;;;;;8.01;51.93;100982.84;5076417;28;20127;-72
2022/01/10 07:38:56;;;;;;;42.00;13.75;;;;;;;8.17;51.70;100986.81;5074897;28;20075;-73
2022/01/10 07:41:22;;;;;;;33.30;13.93;;;;;;;7.92;52.32;101005.06;5058298;28;20079;-73
2022/01/10 07:43:50;;;;;;;36.60;13.93;;;;;;;7.85;52.68;100999.41;5056935;28;20478;-75
2022/01/10 07:46:18;;;;;;;38.30;13.27;;;;;;;7.99;52.02;101000.84;5075106;28;20477;-74
2022/01/10 07:48:45;;;;;;;40.92;13.90;;;;;;;8.04;51.91;101008.44;5077715;28;20118;-74
2022/01/10 07:51:12;;;;;;;36.50;13.15;;;;;;;7.53;53.29;101017.34;5077699;28;20448;-73
2022/01/10 07:53:39;;;;;;;36.45;13.95;;;;;;;7.68;53.00;101025.88;5077325;28;20063;-73
2022/01/10 07:56:06;;;;;;;35.33;14.30;;;;;;;7.67;52.90;101025.00;5078782;28;20044;-74
2022/01/10 07:58:34;;;;;;;40.13;16.52;;;;;;;7.92;52.33;101026.41;5078059;28;20051;-73
2022/01/10 08:01:00;;;;;;;38.10;14.20;;;;;;;7.98;52.02;101035.69;5076683;28;20051;-73
2022/01/10 08:03:27;;;;;;;37.03;14.15;;;;;;;7.98;52.05;101041.88;5078594;28;20048;-74
2022/01/10 08:05:54;;;;;;;41.22;13.48;;;;;;;8.08;51.94;101048.09;5077477;28;20075;-72
2022/01/10 08:08:21;;;;;;;38.20;14.77;;;;;;;8.06;51.95;101057.25;5078127;28;20099;-72
2022/01/10 08:10:47;;;;;;;36.55;14.30;;;;;;;7.99;51.92;101064.13;5077090;28;20095;-72
2022/01/10 08:13:14;;;;;;;33.75;12.90;;;;;;;7.81;52.88;101069.19;5078536;28;20044;-72
2022/01/10 08:15:41;;;;;;;39.22;13.57;;;;;;;8.03;51.94;101061.03;5078102;28;20394;-72
2022/01/10 08:18:08;;;;;;;38.08;15.10;;;;;;;8.12;51.93;101076.28;5077987;28;20052;-72
2022/01/10 08:20:35;;;;;;;37.25;14.32;;;;;;;8.11;51.39;101085.25;5077771;28;20040;-72
2022/01/10 08:23:01;;;;;;;35.05;13.95;;;;;;;8.16;51.77;101086.66;5076529;28;20080;-72
2022/01/10 08:25:27;;;;;;;35.35;14.68;;;;;;;8.12;51.89;101092.31;5059708;28;20501;-72
2022/01/10 08:27:54;;;;;;;41.85;14.35;;;;;;;8.25;51.27;101104.56;5076516;28;20472;-72
2022/01/10 08:30:20;;;;;;;32.72;13.18;;;;;;;8.30;51.15;101105.03;5077616;28;20447;-73
2022/01/10 08:32:50;;;;;;;37.67;13.75;;;;;;;8.11;51.61;101106.63;5078045;28;20051;-72
2022/01/10 08:35:17;;;;;;;36.30;14.13;;;;;;;8.24;51.51;101116.25;5078130;28;20051;-73
2022/01/10 08:37:45;;;;;;;36.55;13.35;;;;;;;8.30;51.49;101115.72;5077323;28;20488;-73
2022/01/10 08:40:12;;;;;;;41.35;14.57;;;;;;;8.37;51.21;101117.72;5076972;28;20123;-74
2022/01/10 08:42:39;;;;;;;31.80;12.52;;;;;;;8.31;51.08;101115.56;5072217;28;20079;-74
2022/01/10 08:45:08;;;;;;;38.45;15.73;;;;;;;8.29;51.51;101124.69;5077380;28;20105;-74
2022/01/10 08:47:35;;;;;;;38.33;13.63;;;;;;;8.27;51.22;101124.84;5078223;28;20115;-74
2022/01/10 08:50:05;;;;;;;31.13;12.93;;;;;;;8.27;51.18;101135.53;5077365;28;20127;-74
2022/01/10 08:52:31;;;;;;;36.60;14.00;;;;;;;8.37;50.97;101138.25;5076995;28;20124;-74
2022/01/10 08:54:57;;;;;;;43.97;13.65;;;;;;;8.35;51.14;101149.06;5076106;28;20049;-74
2022/01/10 08:57:25;;;;;;;60.00;20.35;;;;;;;8.31;51.17;101154.81;5078618;28;20472;-74
2022/01/10 08:59:52;;;;;;;54.33;24.30;;;;;;;8.48;50.73;101158.69;5076070;28;20460;-74
2022/01/10 09:02:19;;;;;;;36.58;16.10;;;;;;;8.51;50.87;101161.94;5077324;28;20128;-75
2022/01/10 09:04:46;;;;;;;38.50;13.60;;;;;;;8.55;50.56;101174.06;5077696;28;20044;-75
2022/01/10 09:07:13;;;;;;;40.90;13.88;;;;;;;8.53;50.83;101181.34;5077815;28;20097;-76
2022/01/10 09:09:40;;;;;;;33.13;13.10;;;;;;;8.60;50.52;101182.50;5076211;28;20421;-76
2022/01/10 09:12:08;;;;;;;29.92;12.05;;;;;;;8.58;50.79;101189.81;5076438;28;20052;-76
2022/01/10 09:14:34;;;;;;;42.05;12.65;;;;;;;8.63;50.36;101191.25;5077095;28;20044;-74
2022/01/10 09:17:03;;;;;;;37.47;12.90;;;;;;;8.51;50.65;101195.84;5076063;28;20127;-76
2022/01/10 09:19:29;;;;;;;46.30;13.02;;;;;;;8.47;51.07;101197.97;5075170;28;20075;-76
2022/01/10 09:21:56;;;;;;;41.33;14.00;;;;;;;8.47;50.69;101199.75;5067949;28;20492;-73
2022/01/10 09:24:22;;;;;;;37.10;12.70;;;;;;;8.56;50.66;101199.81;5075921;28;20064;-76
2022/01/10 09:26:49;;;;;;;37.08;12.70;;;;;;;8.61;50.47;101205.59;5074880;28;20060;-75
2022/01/10 09:29:15;;;;;;;33.70;13.23;;;;;;;8.48;50.60;101210.34;5073195;28;20068;-75
2022/01/10 09:31:42;;;;;;;40.15;12.27;;;;;;;8.48;50.48;101215.69;5076894;28;20111;-76
2022/01/10 09:34:09;;;;;;;29.90;12.32;;;;;;;8.54;50.64;101227.69;5075299;28;20047;-75
2022/01/10 09:36:35;;;;;;;34.88;12.88;;;;;;;8.45;50.91;101220.47;5071469;28;20135;-76
2022/01/10 09:39:02;;;;;;;28.63;12.77;;;;;;;8.48;50.78;101225.53;5074376;28;20072;-75
2022/01/10 09:41:29;;;;;;;37.22;12.90;;;;;;;8.44;50.68;101235.66;5075915;28;20451;-75
2022/01/10 09:44:02;;;;;;;34.03;12.45;;;;;;;8.65;50.11;101232.94;5076314;28;20036;-75
2022/01/10 09:46:30;;;;;;;35.40;12.15;;;;;;;8.67;50.24;101235.44;5075752;28;20055;-75
2022/01/10 09:49:01;;;;;;;39.40;13.23;;;;;;;8.75;49.90;101243.66;5076077;28;20052;-75
2022/01/10 09:51:30;;;;;;;42.60;14.20;;;;;;;8.60;50.02;101246.69;5057200;28;20048;-75
2022/01/10 09:53:59;;;;;;;32.83;11.80;;;;;;;8.59;50.19;101250.34;5075278;28;20044;-75
2022/01/10 09:56:27;;;;;;;28.48;11.70;;;;;;;8.70;49.67;101262.78;5073805;28;20131;-75
2022/01/10 09:58:53;;;;;;;30.88;12.05;;;;;;;8.69;50.16;101277.16;5074788;28;20064;-75
2022/01/10 10:01:21;;;;;;;35.53;12.23;;;;;;;8.81;49.73;101270.69;5074307;28;20060;-75
2022/01/10 10:03:50;;;;;;;22.92;11.68;;;;;;;8.85;49.52;101273.97;5075952;28;20044;-76
2022/01/10 10:06:18;;;;;;;26.25;10.88;;;;;;;8.53;50.40;101282.97;5075723;28;20477;-76
2022/01/10 10:08:45;;;;;;;31.95;11.95;;;;;;;8.51;49.99;101290.28;5075103;28;20110;-76
2022/01/10 10:11:12;;;;;;;26.90;11.13;;;;;;;8.69;49.71;101285.16;5075274;28;20040;-76
2022/01/10 10:13:53;;;;;;;30.65;11.40;;;;;;;8.38;50.75;101297.69;5075757;28;20072;-76
2022/01/10 10:16:21;;;;;;;33.88;11.10;;;;;;;8.59;49.93;101303.84;5073364;28;20144;-76
2022/01/10 10:18:48;;;;;;;32.33;12.07;;;;;;;8.78;49.40;101305.78;5075749;28;20072;-76
2022/01/10 10:21:17;;;;;;;34.72;11.18;;;;;;;8.73;49.61;101308.00;5074853;28;20086;-76
2022/01/10 10:23:48;;;;;;;33.00;11.35;;;;;;;8.71;49.58;101306.41;5074791;28;20080;-76
2022/01/10 10:26:17;;;;;;;28.20;11.98;;;;;;;8.66;49.42;101316.69;5074633;28;20443;-76
2022/01/10 10:28:45;;;;;;;26.88;12.18;;;;;;;8.75;49.61;101318.56;5073201;28;20496;-76
2022/01/10 10:31:13;;;;;;;44.67;12.48;;;;;;;8.70;49.67;101321.63;5072548;28;20480;-76
2022/01/10 10:33:49;;;;;;;27.05;12.30;;;;;;;8.60;49.88;101318.91;5071408;28;20123;-76
2022/01/10 10:36:16;;;;;;;28.73;10.55;;;;;;;8.53;50.19;101323.09;5071931;28;20496;-76
2022/01/10 10:38:43;;;;;;;34.42;12.23;;;;;;;8.59;49.64;101332.41;5070820;28;20132;-76
2022/01/10 10:41:09;;;;;;;28.35;11.57;;;;;;;8.80;48.95;101327.03;5071471;28;20127;-76
2022/01/10 10:43:39;;;;;;;45.97;12.95;;;;;;;8.82;48.88;101336.63;5071376;28;20500;-76
2022/01/10 10:46:12;;;;;;;38.03;12.63;;;;;;;8.76;49.21;101347.00;5074626;28;20048;-76
2022/01/10 10:48:42;;;;;;;35.58;12.65;;;;;;;8.83;48.95;101353.53;5073295;28;20072;-76
2022/01/10 10:51:09;;;;;;;22.58;11.75;;;;;;;8.93;48.90;101351.75;5073744;28;20119;-77
2022/01/10 10:53:36;;;;;;;30.77;12.20;;;;;;;9.01;48.94;101357.25;5073090;28;20135;-77
2022/01/10 10:56:05;;;;;;;27.92;13.15;;;;;;;9.09;48.56;101352.09;5074853;28;20125;-77
2022/01/10 10:58:39;;;;;;;34.92;12.20;;;;;;;8.98;48.37;101362.88;5066637;28;20477;-77
2022/01/10 11:01:06;;;;;;;38.17;12.75;;;;;;;9.08;48.26;101370.94;5075214;28;20203;-77
2022/01/10 11:03:33;;;;;;;34.20;12.73;;;;;;;9.05;48.23;101366.69;5071386;28;20059;-77
2022/01/10 11:06:02;;;;;;;33.20;11.20;;;;;;;9.08;48.25;101369.13;5071831;28;20447;-77
2022/01/10 11:08:31;;;;;;;29.92;11.38;;;;;;;9.13;48.31;101374.09;5073410;28;20132;-77
2022/01/10 11:10:59;;;;;;;28.48;11.07;;;;;;;8.74;49.53;101373.03;5074042;28;20048;-77
2022/01/10 11:13:27;;;;;;;25.15;10.45;;;;;;;8.76;49.31;101379.13;5074585;28;20509;-77
2022/01/10 11:15:56;;;;;;;30.30;11.25;;;;;;;9.04;48.45;101373.06;5073932;28;20041;-77
2022/01/10 11:18:23;;;;;;;24.20;10.52;;;;;;;9.05;48.74;101381.91;5072000;28;20059;-77
2022/01/10 11:20:52;;;;;;;34.08;11.82;;;;;;;9.00;48.85;101382.34;5073683;28;20060;-76
2022/01/10 11:23:32;;;;;;;26.20;10.02;;;;;;;9.03;48.82;101387.41;5076022;28;20492;-76
2022/01/10 11:25:59;;;;;;;23.25;10.00;;;;;;;9.13;48.71;101391.94;5075925;28;20104;-77
2022/01/10 11:28:27;;;;;;;31.50;10.35;;;;;;;8.97;48.76;101393.31;5076668;28;20079;-77
2022/01/10 11:31:00;;;;;;;23.25;9.32;;;;;;;9.03;48.85;101394.59;5076993;28;20048;-77
2022/01/10 11:33:31;;;;;;;29.25;11.13;;;;;;;9.08;48.80;101400.41;5076498;28;20087;-77
2022/01/10 11:36:03;;;;;;;32.33;11.45;;;;;;;9.24;48.67;101405.28;5077030;28;20064;-77